Welcome to our Virtual Airline
Sign-in:

Flight MFC51161

  • Submitted By: John Dean
  • Departure Airport: Minchumina (PAMH)
  • Arrival Airport: Summit (UMM)
  • Aircraft: AC 500 (NAC500MM)
  • Flight Time: 01.18.52
  • Date Submitted: 2020/02/09
  • Route: STOP-OVER AT 1. STAMPEDE (Z90), 2. HEALY RIVER (PAHV-HRR), 3. DENALI (AK06)
  • Status: Accepted
Flight Details
Gross Revenue:
(3 load / $ 128.00 per unit
$ 384.00
Fuel Cost:
(82.1002 fuel used @ 5.1 / unit)
$ 418.71

Additional Log Information:

View Log

[00:35] ----- Flight Opened -----
[00:35] Cigar Box - 1.1.4.0
[00:35] FS: FSX
[00:35] FSUIPC: v4.973
[00:35] Flight Number: MFC51161
[00:35] FS Aircraft: AC500 N687AK
[00:35] FS Model: AC500
[00:35] FS Type: ROCKWELL
[00:35] Departure: PAMH
[00:35] Arrival: UMM
[00:35] Flight Level: 7500
[00:35] Flight Type: H
[00:35] Passengers: 3
[00:35] FOB: 930 lbs
[00:35] Gate: 2 - PAMH
[00:35] Crash Detection: Disabled
[00:35] Crash Detection Aircraft: Disabled
[00:35] Engines: 2 Piston
[00:35] NOTE: Boarding has started
[00:35] FS: Paused
[00:35] Parking Brake: Engaged
[00:35] Engine 1: Started
[00:35] Engine 2: Started
[00:35] Light Data: Beacon ON
[00:35] Main Door Closed
[00:35] COM1: 128.30
[00:35] COM2: 127.80
[00:35] Transponder: 1200
[00:35] NAV1: 113.70
[00:35] NAV2: 110.60
[00:35] ADF1: 284.0
[00:35] ADF2: 240.0
[00:35] Navigation Mode: NAV
[00:36] FS: Unpaused
[00:36] Light Data: Navigation ON
[00:36] Light Data: Landing lights ON
[00:36] Light Data: Taxi lights ON
[00:36] Light Data: Strobe lights ON
[00:36] Light Data: Instrument lights ON
[00:36] Light Data: Recognition lights ON
[00:36] Light Data: Wing lights ON
[00:36] Light Data: Logo lights ON
[00:36] Light Data: Cabin lights ON
[00:36] Navigation Mode: GPS
[00:40] COM1: 122.90
[00:40] Parking Brake: Released
[00:40] NOTE: Taxi started
[00:41] NOTE: ----- TAKE OFF -----
[00:41] GS: 89 knots
[00:41] TAS: 89 knots
[00:41] IAS: 88 knots
[00:41] VS: 13 fpm
[00:41] FOB: 928 lbs
[00:41] Heading: 12°
[00:41] Pitch: 3°
[00:41] Bank: 0°
[00:41] Aircraft Weight: 5588.90 lbs
[00:41] Nearest Airport: PAMH
[00:41] Distance: 0.25 miles
[00:41] Runway: 2 - PAMH
[00:41] Ground Surface: Gravel
[00:41] Ground Condition: Normal
[00:41] NOTE: Weather Report
[00:41] Wind Heading: 339°
[00:41] Wind Speed: 0 knots
[00:41] OAT: 13° C
[00:41] TAT: 14° C
[00:41] Precipitation: None
[00:41] Dew Point: 3° C
[00:41] Visibility: 62 miles
[00:41] METAR: PAMH 090556Z AUTO 00000KT 10SM SCT095 BKN120 M16/M17 A2952 RMK AO2 SLP008 T11561172 11133 21161 53007 FZRANO
[00:41] NOTE: Climb started
[00:41] Landing Gear: Retracted
[00:41] GS: 103 knots
[00:41] TAS: 103 knots
[00:41] IAS: 102 knots
[00:41] VS: 704 fpm
[00:41] AGL: 30 ft
[00:41] AMSL: 705 ft
[00:41] Autopilot: Engaged
[00:41] AGL: 164 ft
[00:41] AMSL: 839 ft
[00:41] View Mode: Spot Plane
[00:57] Recovery: Flight Saved
[01:02] Landing Gear: Extended
[01:02] GS: 126 knots
[01:02] TAS: 126 knots
[01:02] IAS: 121 knots
[01:02] VS: -99 fpm
[01:02] AGL: 1303 ft
[01:02] AMSL: 2992 ft
[01:02] Flaps: Position 1
[01:02] GS: 112 knots
[01:02] TAS: 113 knots
[01:02] IAS: 109 knots
[01:02] VS: -489 fpm
[01:03] Flaps: Position 2
[01:03] GS: 106 knots
[01:03] TAS: 108 knots
[01:03] IAS: 104 knots
[01:03] VS: -592 fpm
[01:03] Autopilot: Disengaged
[01:03] AGL: 902 ft
[01:03] AMSL: 2542 ft
[01:03] Flaps: Position 3
[01:03] GS: 93 knots
[01:03] TAS: 95 knots
[01:03] IAS: 92 knots
[01:03] VS: -475 fpm
[01:04] NOTE: ----- LANDED -----
[01:04] Landing Rate: -143.02 fpm
[01:04] GS: 60 knots
[01:04] TAS: 60 knots
[01:04] IAS: 58 knots
[01:04] VS: -151 fpm
[01:04] FOB: 856 lbs
[01:04] Heading: 159°
[01:04] Pitch: 8°
[01:04] Bank: -1°
[01:04] Aircraft Weight: 5516.67 lbs
[01:04] Nearest Airport: Z90
[01:04] Distance: 0.08 miles
[01:04] Runway: 15 - Z90
[01:04] Ground Surface: Grass
[01:04] Ground Condition: Normal
[01:04] NOTE: Weather Report
[01:04] Wind Heading: 338°
[01:04] Wind Speed: 0 knots
[01:04] OAT: 11° C
[01:04] TAT: 11° C
[01:04] Precipitation: None
[01:04] Dew Point: 0° C
[01:04] Visibility: 62 miles
[01:04] METAR: UMMG 090600Z 20004MPS CAVOK M03/M06 Q1022 NOSIG UMMS 090630Z 21003G06MPS 160V240 7000 OVC003 M02/M02 Q1022 R13L/620540 R13R/////// NOSIG RMK QBB100
[01:04] View Mode: Spot Plane
[01:04] Flaps: Position 0
[01:04] NOTE: Taxi started
[01:05] NOTE: Arrived
[01:05] Parking Brake: Engaged
[01:05] Main Door Open
[01:06] Main Door Closed
[01:07] Parking Brake: Released
[01:07] Flaps: Position 1
[01:08] Landing Gear: Retracted
[01:08] GS: 91 knots
[01:08] TAS: 92 knots
[01:08] IAS: 90 knots
[01:08] VS: 651 fpm
[01:08] AGL: 23 ft
[01:08] AMSL: 1870 ft
[01:08] Autopilot: Engaged
[01:08] AGL: 178 ft
[01:08] AMSL: 1998 ft
[01:08] Flaps: Position 0
[01:08] GS: 99 knots
[01:08] TAS: 101 knots
[01:08] IAS: 98 knots
[01:08] VS: 1213 fpm
[01:08] View Mode: Spot Plane
[01:19] Landing Gear: Extended
[01:19] GS: 124 knots
[01:19] TAS: 124 knots
[01:19] IAS: 119 knots
[01:19] VS: -74 fpm
[01:19] AGL: 978 ft
[01:19] AMSL: 2992 ft
[01:19] Flaps: Position 1
[01:19] GS: 122 knots
[01:19] TAS: 123 knots
[01:19] IAS: 118 knots
[01:19] VS: -73 fpm
[01:22] Flaps: Position 2
[01:22] GS: 91 knots
[01:22] TAS: 91 knots
[01:22] IAS: 88 knots
[01:22] VS: 34 fpm
[01:22] Autopilot: Disengaged
[01:22] AGL: 1208 ft
[01:22] AMSL: 2490 ft
[01:23] Autopilot: Engaged
[01:23] AGL: 1096 ft
[01:23] AMSL: 2421 ft
[01:23] Autopilot: Disengaged
[01:23] AGL: 1112 ft
[01:23] AMSL: 2421 ft
[01:24] Flaps: Position 3
[01:24] GS: 79 knots
[01:24] TAS: 79 knots
[01:24] IAS: 77 knots
[01:24] VS: -533 fpm
[01:25] NOTE: ----- LANDED -----
[01:25] Landing Rate: -129.95 fpm
[01:25] GS: 62 knots
[01:25] TAS: 62 knots
[01:25] IAS: 61 knots
[01:25] VS: -136 fpm
[01:25] FOB: 804 lbs
[01:25] Heading: 156°
[01:25] Pitch: 5°
[01:25] Bank: 0°
[01:25] Aircraft Weight: 5464.72 lbs
[01:25] Nearest Airport: PAHV
[01:25] Distance: 0.05 miles
[01:25] Runway: 15 - HRR
[01:25] Ground Surface: Asphalt
[01:25] Ground Condition: Normal
[01:25] NOTE: Weather Report
[01:25] Wind Heading: 338°
[01:25] Wind Speed: 0 knots
[01:25] OAT: 12° C
[01:25] TAT: 12° C
[01:25] Precipitation: None
[01:25] Dew Point: 0° C
[01:25] Visibility: 62 miles
[01:25] METAR: UMMG 090600Z 20004MPS CAVOK M03/M06 Q1022 NOSIG UMMS 090630Z 21003G06MPS 160V240 7000 OVC003 M02/M02 Q1022 R13L/620540 R13R/////// NOSIG RMK QBB100
[01:25] View Mode: Spot Plane
[01:25] Flaps: Position 0
[01:27] Parking Brake: Engaged
[01:27] Main Door Open
[01:30] Main Door Closed
[01:30] Parking Brake: Released
[01:32] Flaps: Position 1
[01:32] Parking Brake: Engaged
[01:33] Parking Brake: Released
[01:33] Landing Gear: Retracted
[01:33] GS: 87 knots
[01:33] TAS: 88 knots
[01:33] IAS: 87 knots
[01:33] VS: 1334 fpm
[01:33] AGL: 53 ft
[01:33] AMSL: 1345 ft
[01:33] Autopilot: Engaged
[01:33] AGL: 187 ft
[01:33] AMSL: 1479 ft
[01:33] View Mode: Spot Plane
[01:34] Recovery: Flight Saved
[01:38] Landing Gear: Extended
[01:38] GS: 114 knots
[01:38] TAS: 115 knots
[01:38] IAS: 111 knots
[01:38] VS: -67 fpm
[01:38] AGL: 1355 ft
[01:38] AMSL: 2992 ft
[01:39] Flaps: Position 2
[01:39] GS: 106 knots
[01:39] TAS: 107 knots
[01:39] IAS: 103 knots
[01:39] VS: 37 fpm
[01:39] Autopilot: Disengaged
[01:39] AGL: 1214 ft
[01:39] AMSL: 3005 ft
[01:39] Flaps: Position 3
[01:39] GS: 103 knots
[01:39] TAS: 103 knots
[01:39] IAS: 100 knots
[01:39] VS: -452 fpm
[01:41] NOTE: ----- LANDED -----
[01:41] Landing Rate: -71.51 fpm
[01:41] GS: 64 knots
[01:41] TAS: 64 knots
[01:41] IAS: 62 knots
[01:41] VS: -67 fpm
[01:41] FOB: 781 lbs
[01:41] Heading: 132°
[01:41] Pitch: 7°
[01:41] Bank: 0°
[01:41] Aircraft Weight: 5441.86 lbs
[01:41] Nearest Airport: AK06
[01:41] Distance: 0.26 miles
[01:41] Runway: 12 - AK06
[01:41] Ground Surface: Gravel
[01:41] Ground Condition: Normal
[01:41] NOTE: Weather Report
[01:41] Wind Heading: 338°
[01:41] Wind Speed: 0 knots
[01:41] OAT: 11° C
[01:41] TAT: 11° C
[01:41] Precipitation: None
[01:41] Dew Point: 0° C
[01:41] Visibility: 62 miles
[01:41] METAR: UMMG 090600Z 20004MPS CAVOK M03/M06 Q1022 NOSIG UMMS 090630Z 21003G06MPS 160V240 7000 OVC003 M02/M02 Q1022 R13L/620540 R13R/////// NOSIG RMK QBB100
[01:41] View Mode: Spot Plane
[01:41] Flaps: Position 0
[01:42] Parking Brake: Engaged
[01:42] Main Door Open
[01:44] Main Door Closed
[01:45] Parking Brake: Released
[01:48] Parking Brake: Engaged
[01:48] Flaps: Position 1
[01:49] Parking Brake: Released
[01:49] Landing Gear: Retracted
[01:49] GS: 83 knots
[01:49] TAS: 84 knots
[01:49] IAS: 82 knots
[01:49] VS: 308 fpm
[01:49] AGL: 13 ft
[01:49] AMSL: 2011 ft
[01:49] Autopilot: Engaged
[01:49] AGL: 78 ft
[01:49] AMSL: 2076 ft
[01:49] View Mode: Spot Plane
[01:58] Landing Gear: Extended
[01:58] GS: 112 knots
[01:58] TAS: 112 knots
[01:58] IAS: 108 knots
[01:58] VS: -66 fpm
[01:58] AGL: 735 ft
[01:58] AMSL: 2992 ft
[01:59] Flaps: Position 2
[01:59] GS: 108 knots
[01:59] TAS: 110 knots
[01:59] IAS: 105 knots
[01:59] VS: -11 fpm
[01:59] Autopilot: Disengaged
[01:59] AGL: 686 ft
[01:59] AMSL: 2985 ft
[02:00] Flaps: Position 3
[02:00] GS: 89 knots
[02:00] TAS: 89 knots
[02:00] IAS: 86 knots
[02:00] VS: -493 fpm
[02:01] NOTE: ----- LANDED -----
[02:01] Landing Rate: -79.97 fpm
[02:01] GS: 62 knots
[02:01] TAS: 61 knots
[02:01] IAS: 59 knots
[02:01] VS: -73 fpm
[02:01] FOB: 749 lbs
[02:01] Heading: 207°
[02:01] Pitch: 9°
[02:01] Bank: 0°
[02:01] Aircraft Weight: 5409.41 lbs
[02:01] Nearest Airport: UMM
[02:01] Distance: 0.17 miles
[02:01] Runway: 21 - UMM
[02:01] Ground Surface: Gravel
[02:01] Ground Condition: Normal
[02:01] NOTE: Weather Report
[02:01] Wind Heading: 338°
[02:01] Wind Speed: 0 knots
[02:01] OAT: 10° C
[02:01] TAT: 10° C
[02:01] Precipitation: None
[02:01] Dew Point: 0° C
[02:01] Visibility: 62 miles
[02:01] METAR: UMMG 090600Z 20004MPS CAVOK M03/M06 Q1022 NOSIG UMMS 090630Z 21003G06MPS 160V240 7000 OVC003 M02/M02 Q1022 R13L/620540 R13R/////// NOSIG RMK QBB100
[02:01] View Mode: Spot Plane
[02:01] Flaps: Position 0
[02:02] Parking Brake: Engaged
[02:02] Engine 1: Stopped
[02:02] Engine 2: Stopped
[02:02] Main Door Open
[02:02] Light Data: Navigation OFF
[02:02] Light Data: Beacon OFF
[02:02] Light Data: Landing lights OFF
[02:02] Light Data: Taxi lights OFF
[02:02] Light Data: Strobe lights OFF
[02:02] Light Data: Instrument lights OFF
[02:02] Light Data: Recognition lights OFF
[02:02] Light Data: Wing lights OFF
[02:02] Light Data: Logo lights OFF
[02:02] Light Data: Cabin lights OFF
[02:04] FS: Paused
[02:05] Gate: 2 - UMM
[02:05] NOTE: Flight Completed
[02:05] FS Aircraft: AC500 N687AK
[02:05] FS Model: AC500
[02:05] FS Type: ROCKWELL
[02:05] FOB: 749 lbs
[02:05] Fuel Used: 181 lbs
[02:05] Flight Time: 01:18:52
[02:05] Flight Time (Dawn): 00:00:00
[02:05] Flight Time (Day): 01:18:52
[02:05] Flight Time (Dusk): 00:00:00
[02:05] Flight Time (Night): 00:00:00
[02:05] Total Landings: 4
[02:05] MaxSim Rate: 1x
[02:05] Cigar Box - 1.1.4.0
[02:05] ----- Flight Closed -----

Route Map